Beverly Hills, CA

9:54 AM PST on February 11, 2016 (GMT -0800)
Beverly Hills City Hall | | Change Station
CLOSE
Current Station
Personal Weather Station
Location: Beverly Hills, CA
Elevation: 289 ft
Nearby Weather Stations
Active Advisory: High Surf Advisory

Elev 289 ft 34.07 °N, 118.40 °W | Updated 9 minutes ago

Clear
Clear
79.6 °F
Feels Like 78 °F
N
2.0
Wind Variable Wind from North
Gusts 9.0 mph

Today
High -- | Low -- °F
--% Chance of Precip.
Yesterday
High -- | Low -- °F
Precip. -- in
Pressure 30.12 in
Visibility 10.0 miles
Clouds Clear
Heat Index 78 °F
Dew Point 36 °F
Humidity 21%
Rainfall 0.00 in
Snow Depth Not available.
6:42 AM 5:33 PM
Waxing Crescent, 13% visible
METAR KSMO 111751Z 20006KT 10SM CLR 22/03 A3013 RMK AO2 SLP200 T02170033 10222 20150 51014
Pressure 30.12 in
Visibility 10.0 miles
Clouds Clear
Heat Index 78 °F
Dew Point 36 °F
Humidity 21%
Rainfall 0.00 in
Snow Depth Not available.
6:42 AM 5:33 PM
Waxing Crescent, 13% visible
METAR KSMO 111751Z 20006KT 10SM CLR 22/03 A3013 RMK AO2 SLP200 T02170033 10222 20150 51014

10-Day Weather Forecast

Almanac

Astronomy

Feb. 11, 2016 Rise Set
Actual Time
Civil Twilight
Nautical Twilight
Astronomical Twilight
Moon
Length of Visible Light
Length of Day
Tomorrow will be .
, % of the Moon is Illuminated

Today's Extremes

State Highs State Lows

Community

WunderPhotos

Upload Photos

1,892,113 photos uploaded!

WunderBlog® & News

Nearby

Air Quality

  Air Quality AQ Index Pollutant
Not available.

Snow Depth

Station Depth Elevation

Earthquake Activity

City Distance Mag. Time & Date
Minimum magnitude displayed is 2.5.

Coastal Water Temperatures

Place Temperature

Stations

Nearby Weather Stations

Station Location Temp. Windchill Dew Point Humidity Wind Precip. Elev Updated Type
                   

Watches & Warnings

High Surf Advisory
Issued: 5:26 AM PST Feb. 11, 2016 – National Weather Service

... High surf advisory in effect from 9 am Friday to noon PST
Sunday...

The National Weather Service in Los Angeles/Oxnard has issued a
high surf advisory... which is in effect from 9 am Friday to noon
PST Sunday.

* Surf and timing... surf is expected to build to 4 to 8 feet
Friday... then peak at 5 to 10 feet Friday night through Saturday
night. Surf will begin to subside slowly Sunday.

* Impacts... the large surf may cause minor beach erosion and
strong rip currents that will create a risk of ocean drowning.
Sneaker waves can suddenly overrun previously dry beaches and
jetties around the time of high tide.

* Locations... surf will be highest on exposed west and northwest
facing beaches. Local sets to 12 feet are possible near Ventura
Harbor.

Precautionary/preparedness actions...

A high surf advisory means that high surf and rip currents will
make swimming and rock jetties dangerous.

Remember... if caught in a rip current... swim parallel to shore
until you are free of the powerful current. Always swim near a
lifeguard.